Time;durP1;ratioP1;P1;durP2;ratioP2;P2;SDS_P1;SDS_P2;PMS_P1;PMS_P2;Temp;Humidity;BMP_temperature;BMP_pressure;BME280_temperature;BME280_humidity;BME280_pressure;Samples;Min_cycle;Max_cycle;Signal;HPM_P1;HPM_P2
2023/02/01 00:01:07;;;;;;;13.88;8.45;;;;;;;8.96;100.00;100826.31;2099780;28;20044;-80
2023/02/01 00:02:30;;;;;;;11.55;7.20;;;;;;;8.94;100.00;100832.41;2103455;28;20142;-80
2023/02/01 00:03:52;;;;;;;13.52;7.70;;;;;;;8.96;100.00;100844.75;2102243;28;20455;-80
2023/02/01 00:05:16;;;;;;;10.73;5.95;;;;;;;8.98;100.00;100843.06;2110912;28;20052;-80
2023/02/01 00:06:38;;;;;;;10.73;5.28;;;;;;;8.98;100.00;100834.25;2094175;28;20409;-80
2023/02/01 00:08:00;;;;;;;26.75;20.63;;;;;;;8.95;100.00;100837.69;2094624;28;20488;-80
2023/02/01 00:09:22;;;;;;;17.88;10.63;;;;;;;8.93;100.00;100844.66;2115778;27;20426;-80
2023/02/01 00:10:44;;;;;;;13.55;6.30;;;;;;;8.93;100.00;100856.94;2108592;28;20098;-81
2023/02/01 00:12:05;;;;;;;9.00;5.25;;;;;;;8.94;100.00;100858.72;2102950;28;20224;-80
2023/02/01 00:13:30;;;;;;;8.02;4.43;;;;;;;8.95;100.00;100857.88;2105497;28;20105;-80
2023/02/01 00:14:52;;;;;;;7.32;4.40;;;;;;;8.94;100.00;100885.03;2097564;28;20064;-81
2023/02/01 00:16:16;;;;;;;8.20;3.70;;;;;;;8.91;100.00;100870.09;2104734;28;20056;-82
2023/02/01 00:17:38;;;;;;;6.60;3.10;;;;;;;8.80;100.00;100885.59;2103627;28;20044;-81
2023/02/01 00:19:01;;;;;;;9.38;3.83;;;;;;;8.66;100.00;100894.88;2100268;28;20390;-82
2023/02/01 00:20:25;;;;;;;11.07;6.47;;;;;;;8.49;100.00;100904.09;2102520;28;20133;-84
2023/02/01 00:21:48;;;;;;;16.92;10.80;;;;;;;8.32;100.00;100905.41;2095022;28;20113;-85
2023/02/01 00:23:11;;;;;;;14.07;10.90;;;;;;;8.24;100.00;100893.75;2099850;28;20569;-84
2023/02/01 00:24:32;;;;;;;10.77;7.78;;;;;;;8.28;100.00;100906.13;2091806;28;20068;-83
2023/02/01 00:25:55;;;;;;;5.80;2.50;;;;;;;8.31;100.00;100912.41;2089615;28;20439;-81
2023/02/01 00:27:20;;;;;;;6.75;2.50;;;;;;;8.33;100.00;100915.97;2099846;28;20062;-81
2023/02/01 00:28:41;;;;;;;9.55;2.88;;;;;;;8.37;100.00;100911.69;2094144;28;20041;-82
2023/02/01 00:30:04;;;;;;;6.95;2.83;;;;;;;8.37;100.00;100922.19;2090521;28;20056;-83
2023/02/01 00:31:25;;;;;;;9.05;3.80;;;;;;;8.34;100.00;100901.06;2100695;28;20052;-81
2023/02/01 00:32:48;;;;;;;9.80;2.85;;;;;;;8.32;100.00;100919.47;2091986;28;20531;-83
2023/02/01 00:34:12;;;;;;;8.95;3.50;;;;;;;8.31;100.00;100928.19;2091032;28;20439;-83
2023/02/01 00:35:36;;;;;;;8.23;3.35;;;;;;;8.29;100.00;100928.94;2099418;28;20052;-82
2023/02/01 00:36:57;;;;;;;11.45;5.60;;;;;;;8.25;100.00;100922.72;2093450;28;20508;-81
2023/02/01 00:38:19;;;;;;;9.90;5.15;;;;;;;8.29;100.00;100932.47;2093953;28;20053;-81
2023/02/01 00:39:42;;;;;;;8.80;4.70;;;;;;;8.36;100.00;100933.56;2108994;28;20109;-80
2023/02/01 00:41:05;;;;;;;8.55;4.20;;;;;;;8.42;100.00;100927.56;2095499;28;20057;-82
2023/02/01 00:42:27;;;;;;;11.48;4.63;;;;;;;8.45;100.00;100920.66;2092139;28;20141;-81
2023/02/01 00:43:49;;;;;;;7.95;3.97;;;;;;;8.46;100.00;100927.72;2098599;28;20676;-80
2023/02/01 00:45:12;;;;;;;8.68;3.78;;;;;;;8.47;100.00;100925.97;2100139;28;20055;-81
2023/02/01 00:46:34;;;;;;;8.25;3.85;;;;;;;8.50;100.00;100923.41;2092879;28;20110;-81
2023/02/01 00:47:55;;;;;;;8.73;3.40;;;;;;;8.53;100.00;100932.28;2099889;28;20036;-81
2023/02/01 00:49:18;;;;;;;6.70;3.80;;;;;;;8.55;100.00;100927.03;2102201;28;20137;-80
2023/02/01 00:50:43;;;;;;;6.07;3.28;;;;;;;8.58;100.00;100932.41;2094577;28;20057;-81
2023/02/01 00:52:05;;;;;;;8.32;3.45;;;;;;;8.59;100.00;100926.28;2106163;28;20043;-80
2023/02/01 00:53:28;;;;;;;8.52;3.42;;;;;;;8.59;100.00;100932.44;2109719;28;20050;-79
2023/02/01 00:54:49;;;;;;;6.78;3.28;;;;;;;8.61;100.00;100917.56;2105924;28;20052;-79
2023/02/01 00:56:11;;;;;;;8.50;3.08;;;;;;;8.64;100.00;100922.94;2101575;28;20048;-80
2023/02/01 00:57:33;;;;;;;7.22;2.50;;;;;;;8.69;100.00;100931.81;2102433;28;20048;-79
2023/02/01 00:58:55;;;;;;;7.25;4.60;;;;;;;8.69;100.00;100934.47;2100693;28;20576;-79
2023/02/01 01:00:18;;;;;;;9.45;5.85;;;;;;;8.60;100.00;100935.97;2102228;28;20111;-81
2023/02/01 01:01:41;;;;;;;12.93;6.45;;;;;;;8.30;100.00;100936.00;2093423;28;20047;-83
2023/02/01 01:03:02;;;;;;;12.40;5.38;;;;;;;8.18;100.00;100956.69;2094657;28;20052;-82
2023/02/01 01:04:25;;;;;;;9.85;4.72;;;;;;;8.17;100.00;100966.31;2097461;28;20040;-82
2023/02/01 01:05:49;;;;;;;4.28;2.50;;;;;;;8.20;100.00;100962.91;2089410;28;20140;-83
2023/02/01 01:07:12;;;;;;;5.00;2.25;;;;;;;8.10;100.00;100968.72;2104709;28;20055;-82
2023/02/01 01:08:34;;;;;;;6.13;2.20;;;;;;;8.11;100.00;100968.78;2106486;28;20064;-81
2023/02/01 01:09:56;;;;;;;7.13;2.28;;;;;;;8.13;100.00;100971.47;2094561;28;20288;-82
2023/02/01 01:11:19;;;;;;;4.82;2.08;;;;;;;8.13;100.00;100982.88;2086109;28;20144;-81
2023/02/01 01:12:42;;;;;;;5.20;2.33;;;;;;;8.12;100.00;100978.44;2091860;28;20048;-80
2023/02/01 01:14:07;;;;;;;6.18;2.60;;;;;;;8.14;100.00;100986.38;2097705;28;20065;-81
2023/02/01 01:15:28;;;;;;;8.63;2.88;;;;;;;8.12;100.00;100985.44;2105315;28;20491;-81
2023/02/01 01:16:51;;;;;;;5.80;2.30;;;;;;;8.15;100.00;100972.38;2099015;28;20354;-81
2023/02/01 01:18:12;;;;;;;6.18;2.72;;;;;;;8.19;100.00;100979.53;2101907;28;20043;-81
2023/02/01 01:19:34;;;;;;;6.38;3.22;;;;;;;8.20;100.00;100983.94;2094319;28;20074;-81
2023/02/01 01:20:58;;;;;;;8.18;3.20;;;;;;;8.23;100.00;100981.38;2094131;28;20094;-80
2023/02/01 01:22:20;;;;;;;6.15;3.15;;;;;;;8.21;100.00;100988.31;2099238;28;20142;-82
2023/02/01 01:23:42;;;;;;;7.60;2.65;;;;;;;8.22;100.00;100976.97;2102846;28;20044;-81
2023/02/01 01:25:05;;;;;;;;;;;;;;;8.20;100.00;100974.31;2094625;28;20083;-81
2023/02/01 01:26:28;;;;;;;;;;;;;;;8.18;100.00;100977.72;2107446;28;19919;-80
2023/02/01 01:27:49;;;;;;;5.32;3.50;;;;;;;8.17;100.00;100987.34;2103868;28;19924;-80
2023/02/01 01:29:12;;;;;;;8.70;3.22;;;;;;;8.10;100.00;100979.25;2092858;28;20051;-78
2023/02/01 01:30:34;;;;;;;6.35;2.20;;;;;;;8.01;100.00;100975.50;2092587;28;20144;-80
2023/02/01 01:31:56;;;;;;;7.45;2.17;;;;;;;7.98;100.00;100985.03;2090577;28;20553;-78
2023/02/01 01:33:18;;;;;;;9.20;2.42;;;;;;;7.96;100.00;100969.22;2092270;28;20048;-79
2023/02/01 01:34:40;;;;;;;8.38;2.45;;;;;;;7.97;100.00;100983.25;2093510;28;20127;-80
2023/02/01 01:36:05;;;;;;;8.70;2.65;;;;;;;7.97;100.00;100985.88;2102656;28;20543;-80
2023/02/01 01:37:28;;;;;;;4.90;2.65;;;;;;;7.99;100.00;100987.72;2092103;28;20033;-80
2023/02/01 01:38:50;;;;;;;6.97;3.78;;;;;;;8.04;100.00;100979.06;2092034;28;20052;-80
2023/02/01 01:40:12;;;;;;;6.63;3.25;;;;;;;8.05;100.00;100972.97;2093401;28;20416;-80
2023/02/01 01:41:35;;;;;;;6.40;3.30;;;;;;;8.06;100.00;100967.75;2097197;28;20047;-80
2023/02/01 01:43:15;;;;;;;5.60;2.90;;;;;;;8.04;100.00;100973.81;2095048;28;20073;-80
2023/02/01 01:45:03;;;;;;;6.15;2.85;;;;;;;8.03;100.00;100959.78;2094943;28;20087;-80
2023/02/01 01:46:26;;;;;;;6.43;3.13;;;;;;;8.04;100.00;100958.03;2095730;28;20049;-80
2023/02/01 01:47:52;;;;;;;5.57;3.47;;;;;;;8.06;100.00;100957.25;2088411;28;20052;-81
2023/02/01 01:49:17;;;;;;;8.48;3.65;;;;;;;8.09;100.00;100956.41;2091357;28;20097;-80
2023/02/01 01:50:42;;;;;;;4.80;2.65;;;;;;;8.10;100.00;100948.59;2098607;28;20044;-81
2023/02/01 01:52:07;;;;;;;7.57;2.17;;;;;;;8.07;100.00;100924.84;2093371;28;20331;-82
2023/02/01 01:53:34;;;;;;;7.88;2.15;;;;;;;8.04;100.00;100948.41;2099899;28;20049;-81
2023/02/01 01:54:59;;;;;;;3.80;1.60;;;;;;;8.01;100.00;100943.06;2094011;28;20053;-81
2023/02/01 01:56:20;;;;;;;6.38;1.88;;;;;;;7.98;100.00;100958.75;2100457;28;20048;-80
2023/02/01 01:57:45;;;;;;;;;;;;;;;7.93;100.00;100950.75;2099463;28;20563;-80
2023/02/01 01:59:08;;;;;;;3.97;1.30;;;;;;;7.87;100.00;100966.34;2105127;28;19920;-80
2023/02/01 02:00:31;;;;;;;4.68;1.27;;;;;;;7.87;100.00;100968.97;2095974;28;20041;-79
2023/02/01 02:01:55;;;;;;;3.55;1.27;;;;;;;7.84;100.00;100975.84;2096016;28;20094;-80
2023/02/01 02:03:19;;;;;;;5.53;1.75;;;;;;;7.81;100.00;100981.91;2093377;28;20102;-80
2023/02/01 02:04:42;;;;;;;6.07;1.40;;;;;;;7.82;100.00;100990.66;2095454;28;20044;-83
2023/02/01 02:06:13;;;;;;;2.08;1.27;;;;;;;7.85;100.00;101002.19;2101876;28;20044;-80
2023/02/01 02:07:40;;;;;;;3.58;1.55;;;;;;;7.87;100.00;101000.50;2102072;28;20075;-79
2023/02/01 02:09:04;;;;;;;3.80;1.60;;;;;;;7.90;100.00;100997.06;2092959;28;20601;-80
2023/02/01 02:10:59;;;;;;;5.10;1.90;;;;;;;7.93;100.00;101003.31;2099565;28;20297;-81
2023/02/01 02:12:08;;;;;;;;;;;;;;;7.92;100.00;100996.28;2105147;28;20135;-81
2023/02/01 02:13:32;;;;;;;4.50;1.55;;;;;;;7.97;100.00;100992.03;2101306;28;19920;-81
2023/02/01 02:14:55;;;;;;;4.88;1.55;;;;;;;7.96;100.00;100976.22;2102194;28;20032;-81
2023/02/01 02:16:29;;;;;;;3.10;1.63;;;;;;;7.97;100.00;100989.41;2094380;28;20052;-79
2023/02/01 02:17:59;;;;;;;4.43;1.35;;;;;;;8.02;100.00;100982.53;2094206;28;20091;-80
2023/02/01 02:20:04;;;;;;;3.92;1.92;;;;;;;8.09;100.00;100980.09;2099366;28;20101;-81
2023/02/01 02:21:47;;;;;;;5.25;1.55;;;;;;;8.14;100.00;100989.03;2088366;28;20059;-82
2023/02/01 02:23:42;;;;;;;10.25;3.38;;;;;;;8.11;100.00;100978.41;2097911;28;20056;-83
2023/02/01 02:25:47;;;;;;;8.50;4.30;;;;;;;7.99;100.00;100985.09;2075780;28;20050;-83
2023/02/01 02:27:27;;;;;;;13.02;8.30;;;;;;;7.93;100.00;100986.66;2095873;28;20049;-80
2023/02/01 02:29:21;;;;;;;9.43;3.60;;;;;;;7.79;100.00;100988.84;2092909;28;20044;-80
2023/02/01 02:31:25;;;;;;;8.07;4.32;;;;;;;7.63;100.00;100970.84;2103449;28;20210;-79
2023/02/01 02:33:01;;;;;;;;;;;;;;;7.58;100.00;100961.94;2092630;28;20056;-81
2023/02/01 02:34:28;;;;;;;5.05;2.28;;;;;;;7.64;100.00;100971.72;2104371;28;19924;-80
2023/02/01 02:35:59;;;;;;;5.35;2.20;;;;;;;7.68;100.00;100976.25;2101598;28;20043;-80
2023/02/01 02:37:32;;;;;;;5.90;2.45;;;;;;;7.69;100.00;100978.91;2096077;28;20097;-80
2023/02/01 02:39:05;;;;;;;19.25;12.68;;;;;;;7.71;100.00;100973.69;2093675;28;20052;-81
2023/02/01 02:40:35;;;;;;;24.67;19.80;;;;;;;7.75;100.00;100978.19;2095282;28;20044;-81
2023/02/01 02:47:25;;;;;;;19.40;12.85;;;;;;;7.95;100.00;100992.81;2097619;28;20906;-80
2023/02/01 02:48:52;;;;;;;13.90;9.40;;;;;;;7.99;100.00;100990.34;2100003;28;20051;-80
2023/02/01 02:55:40;;;;;;;12.57;7.03;;;;;;;8.19;100.00;100985.66;2102904;28;20040;-80
2023/02/01 03:04:08;;;;;;;6.47;3.03;;;;;;;8.12;100.00;100977.56;2089683;28;20041;-80
2023/02/01 03:05:39;;;;;;;9.90;3.97;;;;;;;8.18;100.00;100965.47;2092462;28;20731;-80
2023/02/01 03:07:14;;;;;;;9.27;3.35;;;;;;;8.22;100.00;100966.44;2087663;28;20044;-79
2023/02/01 03:08:35;;;;;;;9.23;4.00;;;;;;;8.24;100.00;100965.66;2101524;28;20044;-80
2023/02/01 03:09:58;;;;;;;9.50;4.32;;;;;;;8.28;100.00;100964.88;2095039;28;20062;-80
2023/02/01 03:11:21;;;;;;;11.43;4.90;;;;;;;8.28;100.00;100962.25;2096064;28;20067;-81
2023/02/01 03:14:29;;;;;;;10.73;4.38;;;;;;;8.29;100.00;100961.41;2106043;28;20094;-81
2023/02/01 03:15:58;;;;;;;7.45;3.25;;;;;;;8.31;100.00;100977.25;2111436;28;20048;-81
2023/02/01 03:17:26;;;;;;;8.18;3.70;;;;;;;8.32;100.00;100968.53;2101222;28;20519;-80
2023/02/01 03:18:54;;;;;;;10.18;5.22;;;;;;;8.31;100.00;100970.25;2093718;28;20590;-81
2023/02/01 03:20:19;;;;;;;9.25;3.53;;;;;;;8.25;100.00;100964.81;2092918;28;20037;-82
2023/02/01 03:21:47;;;;;;;10.75;4.57;;;;;;;8.06;100.00;100962.50;2090026;28;20053;-82
2023/02/01 03:23:12;;;;;;;9.65;6.35;;;;;;;7.92;100.00;100972.63;2108745;28;20046;-82
2023/02/01 03:24:41;;;;;;;11.02;4.70;;;;;;;7.89;100.00;100959.38;2108448;28;20071;-82
2023/02/01 03:26:04;;;;;;;12.95;5.30;;;;;;;7.87;100.00;100970.69;2093836;28;20048;-82
2023/02/01 03:27:35;;;;;;;8.32;3.58;;;;;;;7.88;100.00;100988.22;2092108;28;20243;-82
2023/02/01 03:29:06;;;;;;;13.40;4.43;;;;;;;7.91;100.00;100989.22;2101296;28;20477;-81
2023/02/01 03:30:33;;;;;;;8.85;3.70;;;;;;;7.92;100.00;100985.75;2101276;28;20043;-81
2023/02/01 03:31:56;;;;;;;12.35;5.45;;;;;;;7.93;100.00;100987.53;2093902;28;20460;-81
2023/02/01 03:33:23;;;;;;;9.13;4.10;;;;;;;7.95;100.00;100987.56;2092696;28;20147;-82
2023/02/01 03:34:46;;;;;;;8.60;4.20;;;;;;;7.95;100.00;101004.22;2093377;28;20037;-80
2023/02/01 03:36:19;;;;;;;8.80;4.20;;;;;;;7.95;100.00;100995.44;2096367;28;20071;-82
2023/02/01 03:37:42;;;;;;;8.98;4.90;;;;;;;7.96;100.00;101007.75;2095314;28;20481;-82
2023/02/01 03:39:10;;;;;;;8.23;3.90;;;;;;;7.95;100.00;100998.97;2095264;28;20176;-82
2023/02/01 03:40:36;;;;;;;10.88;4.47;;;;;;;7.98;100.00;101006.06;2094198;28;20451;-82
2023/02/01 03:42:02;;;;;;;8.07;4.18;;;;;;;7.98;100.00;100990.28;2093591;28;20048;-84
2023/02/01 03:43:27;;;;;;;9.55;3.40;;;;;;;7.96;100.00;100991.97;2095915;28;20067;-85
2023/02/01 03:44:55;;;;;;;7.75;3.70;;;;;;;7.93;100.00;100989.28;2095446;28;20033;-85
2023/02/01 03:46:23;;;;;;;5.85;3.30;;;;;;;7.87;100.00;100979.47;2094880;28;20048;-86
2023/02/01 03:47:49;;;;;;;5.15;3.08;;;;;;;7.70;100.00;101006.97;2093440;28;20060;-86
2023/02/01 03:49:17;;;;;;;10.43;5.00;;;;;;;7.61;100.00;101007.56;2097483;28;20052;-87
2023/02/01 03:50:44;;;;;;;7.40;3.95;;;;;;;7.57;100.00;101013.56;2094833;28;20070;-87
2023/02/01 03:52:10;;;;;;;8.20;4.78;;;;;;;7.56;100.00;101017.03;2092980;28;20045;-87
2023/02/01 03:53:36;;;;;;;8.95;4.60;;;;;;;7.56;100.00;101018.78;2093719;28;20133;-88
2023/02/01 03:55:00;;;;;;;10.02;6.38;;;;;;;7.56;100.00;101024.91;2095525;28;20128;-87
2023/02/01 03:56:25;;;;;;;15.57;9.68;;;;;;;7.57;100.00;101017.94;2086979;28;20049;-87
2023/02/01 03:57:54;;;;;;;11.18;5.13;;;;;;;7.65;100.00;101020.81;2101554;28;20086;-83
2023/02/01 03:59:16;;;;;;;6.72;3.28;;;;;;;7.66;100.00;101017.34;2104532;28;20055;-83
2023/02/01 04:00:37;;;;;;;7.57;2.92;;;;;;;7.67;100.00;100988.50;2096803;28;20139;-84
2023/02/01 04:02:00;;;;;;;8.45;3.10;;;;;;;7.67;100.00;101008.63;2096296;28;20329;-83
2023/02/01 04:03:22;;;;;;;8.77;3.00;;;;;;;7.69;100.00;100994.66;2096385;28;20044;-83
2023/02/01 04:04:45;;;;;;;7.68;3.58;;;;;;;7.73;100.00;100995.66;2089397;28;20084;-83
2023/02/01 04:06:09;;;;;;;8.77;3.42;;;;;;;7.76;100.00;101007.16;2092534;28;20052;-82
2023/02/01 04:07:31;;;;;;;9.38;3.92;;;;;;;7.79;100.00;101011.63;2098469;28;20059;-83
2023/02/01 04:08:55;;;;;;;7.57;3.20;;;;;;;7.80;100.00;100995.91;2100214;28;20070;-83
2023/02/01 04:10:17;;;;;;;7.63;4.13;;;;;;;7.84;100.00;101002.13;2102540;28;20059;-84
2023/02/01 04:11:39;;;;;;;8.15;4.20;;;;;;;7.86;100.00;100997.81;2101696;28;20071;-84
2023/02/01 04:13:01;;;;;;;7.65;3.75;;;;;;;7.89;100.00;100997.91;2104774;28;20048;-83
2023/02/01 04:14:24;;;;;;;8.45;3.13;;;;;;;7.92;100.00;101006.78;2102693;28;20067;-82
2023/02/01 04:15:49;;;;;;;9.02;3.22;;;;;;;7.97;100.00;101010.44;2103874;28;20048;-82
2023/02/01 04:17:19;;;;;;;7.88;3.15;;;;;;;8.01;100.00;101008.78;2102953;28;20130;-82
2023/02/01 04:18:44;;;;;;;5.82;2.65;;;;;;;8.05;100.00;101012.41;2093236;28;20136;-82
2023/02/01 04:20:10;;;;;;;7.13;3.05;;;;;;;8.07;100.00;101021.22;2099871;28;20694;-83
2023/02/01 04:21:42;;;;;;;10.18;3.35;;;;;;;8.10;100.00;101010.78;2102009;28;20052;-83
2023/02/01 04:23:05;;;;;;;7.20;3.70;;;;;;;8.12;100.00;101001.22;2096330;28;20044;-83
2023/02/01 04:24:52;;;;;;;7.18;3.20;;;;;;;8.14;100.00;101012.69;2093414;28;20103;-83
2023/02/01 04:26:13;;;;;;;9.38;3.33;;;;;;;8.13;100.00;100998.66;2097888;28;20052;-81
2023/02/01 04:27:37;;;;;;;7.97;3.38;;;;;;;8.15;100.00;100998.66;2103036;28;20047;-82
2023/02/01 04:29:00;;;;;;;6.82;3.55;;;;;;;8.14;100.00;100987.25;2104370;28;20496;-81
2023/02/01 04:30:23;;;;;;;8.45;2.90;;;;;;;8.12;100.00;100998.59;2105441;28;20048;-80
2023/02/01 04:31:46;;;;;;;9.32;4.70;;;;;;;8.11;100.00;100976.66;2100863;28;20123;-79
2023/02/01 04:33:07;;;;;;;10.27;3.35;;;;;;;8.12;100.00;100993.34;2110824;28;20120;-78
2023/02/01 04:34:30;;;;;;;7.03;2.85;;;;;;;8.11;100.00;101002.94;2096819;28;20718;-79
2023/02/01 04:35:51;;;;;;;7.32;3.40;;;;;;;8.10;100.00;101014.31;2101092;28;20081;-79
2023/02/01 04:37:13;;;;;;;11.75;4.28;;;;;;;8.11;100.00;101004.69;2103917;28;20043;-79
2023/02/01 04:38:36;;;;;;;7.25;3.58;;;;;;;8.12;100.00;101014.38;2101555;28;20051;-79
2023/02/01 04:39:59;;;;;;;7.95;4.65;;;;;;;8.13;100.00;101017.03;2105171;28;20040;-78
2023/02/01 04:41:22;;;;;;;8.57;3.00;;;;;;;8.14;100.00;101017.94;2100162;28;20052;-79
2023/02/01 04:42:44;;;;;;;8.38;2.70;;;;;;;8.16;100.00;101024.09;2102012;28;20504;-78
2023/02/01 04:44:07;;;;;;;6.97;2.72;;;;;;;8.15;100.00;101017.97;2103687;28;20121;-79
2023/02/01 04:45:29;;;;;;;7.30;2.83;;;;;;;8.17;100.00;101020.66;2103715;28;20450;-78
2023/02/01 04:46:51;;;;;;;7.47;3.78;;;;;;;8.17;100.00;101024.16;2102116;28;20097;-78
2023/02/01 04:48:13;;;;;;;8.75;4.20;;;;;;;8.19;100.00;101043.53;2107939;28;20430;-76
2023/02/01 04:49:35;;;;;;;20.25;10.48;;;;;;;8.22;100.00;101038.31;2104340;28;20058;-77
2023/02/01 04:50:56;;;;;;;7.60;3.20;;;;;;;8.24;100.00;101034.03;2109356;28;20032;-77
2023/02/01 04:52:19;;;;;;;11.45;3.53;;;;;;;8.24;100.00;101025.22;2110429;28;20473;-77
2023/02/01 04:53:40;;;;;;;7.00;2.92;;;;;;;8.24;100.00;101019.97;2093728;28;20428;-77
2023/02/01 04:55:04;;;;;;;5.57;2.20;;;;;;;8.23;100.00;101031.34;2102027;28;20044;-77
2023/02/01 04:56:27;;;;;;;9.20;2.60;;;;;;;8.23;100.00;101041.84;2103720;28;20048;-77
2023/02/01 04:57:49;;;;;;;7.70;2.38;;;;;;;8.21;100.00;101054.06;2104656;28;20052;-76
2023/02/01 04:59:10;;;;;;;5.38;2.28;;;;;;;8.21;100.00;101070.72;2096772;28;20052;-77
2023/02/01 05:00:33;;;;;;;8.20;2.45;;;;;;;8.21;100.00;101061.94;2093478;28;20131;-77
2023/02/01 05:01:54;;;;;;;5.75;2.13;;;;;;;8.15;100.00;101052.13;2093858;28;20538;-76
2023/02/01 05:03:17;;;;;;;6.07;2.90;;;;;;;8.11;100.00;101059.91;2106008;28;20063;-76
2023/02/01 05:04:40;;;;;;;5.60;2.40;;;;;;;8.12;100.00;101065.22;2108699;28;20395;-77
2023/02/01 05:06:03;;;;;;;7.28;2.40;;;;;;;8.15;100.00;101067.03;2104546;28;20052;-77
2023/02/01 05:07:25;;;;;;;8.57;3.47;;;;;;;8.17;100.00;101075.84;2088225;28;20503;-77
2023/02/01 05:08:47;;;;;;;13.05;5.75;;;;;;;8.20;100.00;101075.97;2093665;28;20049;-78
2023/02/01 05:10:11;;;;;;;9.48;2.80;;;;;;;8.24;100.00;101070.84;2098826;28;20044;-79
2023/02/01 05:14:53;;;;;;;5.07;2.40;;;;;;;8.34;100.00;101070.28;2104692;28;20052;-77
2023/02/01 05:16:16;;;;;;;7.85;2.33;;;;;;;8.35;100.00;101084.31;2101217;28;20078;-77
2023/02/01 05:17:39;;;;;;;7.07;2.50;;;;;;;8.34;100.00;101083.44;2101261;28;20056;-77
2023/02/01 05:19:02;;;;;;;7.70;2.58;;;;;;;8.35;100.00;101065.91;2102238;28;20460;-77
2023/02/01 05:20:23;;;;;;;6.57;2.22;;;;;;;8.35;100.00;101093.09;2092736;28;20057;-77
2023/02/01 05:21:46;;;;;;;7.43;3.20;;;;;;;8.37;100.00;101086.16;2099036;28;20143;-76
2023/02/01 05:23:08;;;;;;;11.30;3.00;;;;;;;8.40;100.00;101082.75;2110428;28;20100;-77
2023/02/01 05:24:29;;;;;;;10.32;2.65;;;;;;;8.44;100.00;101081.09;2104230;28;20070;-76
2023/02/01 05:25:53;;;;;;;28.95;13.70;;;;;;;8.48;100.00;101085.56;2093427;28;20362;-77
2023/02/01 05:27:14;;;;;;;30.35;14.02;;;;;;;8.52;100.00;101090.09;2099741;28;20075;-77
2023/02/01 05:28:38;;;;;;;108.78;40.53;;;;;;;8.56;100.00;101098.13;2087210;28;20087;-77
2023/02/01 05:30:00;;;;;;;74.78;30.80;;;;;;;8.59;100.00;101110.47;2100406;28;21659;-77
2023/02/01 05:31:22;;;;;;;50.03;17.83;;;;;;;8.60;100.00;101105.22;2102590;28;20067;-77
2023/02/01 05:32:44;;;;;;;12.18;5.63;;;;;;;8.60;100.00;101110.50;2096652;28;20044;-77
2023/02/01 05:34:06;;;;;;;10.27;5.25;;;;;;;8.62;100.00;101106.19;2105578;28;20052;-76
2023/02/01 05:35:29;;;;;;;9.82;4.30;;;;;;;8.63;100.00;101120.22;2102309;28;20040;-77
2023/02/01 05:36:51;;;;;;;10.50;6.80;;;;;;;8.61;100.00;101128.06;2103860;28;20044;-76
2023/02/01 05:38:13;;;;;;;9.00;4.53;;;;;;;8.58;100.00;101130.63;2102866;28;20037;-78
2023/02/01 05:39:35;;;;;;;8.55;4.80;;;;;;;8.52;100.00;101126.94;2092607;28;20053;-78
2023/02/01 05:40:58;;;;;;;11.85;7.75;;;;;;;8.49;100.00;101145.25;2095083;28;20032;-77
2023/02/01 05:42:21;;;;;;;12.93;11.57;;;;;;;8.47;100.00;101139.91;2101494;28;20074;-77
2023/02/01 05:43:43;;;;;;;12.07;7.40;;;;;;;8.47;100.00;101139.91;2102993;28;20559;-78
2023/02/01 05:45:07;;;;;;;14.25;8.38;;;;;;;8.48;100.00;101143.44;2100124;28;20496;-77
2023/02/01 05:46:29;;;;;;;14.38;9.43;;;;;;;8.45;100.00;101146.91;2093892;28;20136;-77
2023/02/01 05:47:52;;;;;;;14.80;4.32;;;;;;;8.44;100.00;101138.94;2096330;28;20052;-77
2023/02/01 05:49:13;;;;;;;6.80;4.40;;;;;;;8.44;100.00;101155.63;2101725;28;20044;-77
2023/02/01 05:50:35;;;;;;;10.57;7.13;;;;;;;8.40;100.00;101148.50;2101945;28;20044;-78
2023/02/01 05:52:04;;;;;;;7.70;4.68;;;;;;;8.38;100.00;101144.94;2091547;28;20132;-77
2023/02/01 05:53:26;;;;;;;;;;;;;;;8.33;100.00;101155.31;2096805;28;20048;-77
2023/02/01 05:54:48;;;;;;;10.85;6.60;;;;;;;8.33;100.00;101144.81;2099879;28;19920;-76
2023/02/01 05:56:12;;;;;;;9.85;5.50;;;;;;;8.36;100.00;101155.41;2101211;28;20071;-77
2023/02/01 05:57:34;;;;;;;11.63;6.35;;;;;;;8.39;100.00;101160.75;2093043;28;20420;-77
2023/02/01 05:58:55;;;;;;;20.05;13.48;;;;;;;8.44;100.00;101146.84;2096778;28;20048;-77
2023/02/01 06:00:19;;;;;;;21.70;12.35;;;;;;;8.47;100.00;101137.28;2092618;28;20131;-76
2023/02/01 06:01:42;;;;;;;19.75;12.75;;;;;;;8.48;100.00;101151.34;2100295;28;20052;-76
2023/02/01 06:03:03;;;;;;;14.20;7.07;;;;;;;8.47;100.00;101160.09;2106645;28;20055;-76
2023/02/01 06:04:26;;;;;;;14.50;8.43;;;;;;;8.46;100.00;101159.22;2104292;28;20498;-77
2023/02/01 06:05:49;;;;;;;11.65;6.95;;;;;;;8.46;100.00;101163.56;2085174;28;20045;-77
2023/02/01 06:07:11;;;;;;;8.05;5.85;;;;;;;8.48;100.00;101162.75;2089402;28;20501;-77
2023/02/01 06:08:34;;;;;;;5.63;2.80;;;;;;;8.50;100.00;101161.06;2091565;28;20040;-76
2023/02/01 06:09:56;;;;;;;7.95;4.45;;;;;;;8.51;100.00;101170.75;2094652;28;20044;-76
2023/02/01 06:11:19;;;;;;;14.18;6.50;;;;;;;8.53;100.00;101174.34;2097621;28;20460;-77
2023/02/01 06:12:42;;;;;;;9.90;4.72;;;;;;;8.55;100.00;101175.25;2101944;28;20048;-77
2023/02/01 06:14:04;;;;;;;10.10;5.30;;;;;;;8.57;100.00;101183.19;2101402;28;20384;-76
2023/02/01 06:15:25;;;;;;;9.23;4.47;;;;;;;8.57;100.00;101184.09;2099170;28;20109;-76
2023/02/01 06:16:48;;;;;;;15.18;9.65;;;;;;;8.56;100.00;101192.84;2095601;28;20024;-77
2023/02/01 06:18:09;;;;;;;13.75;9.00;;;;;;;8.57;100.00;101191.09;2100931;28;20551;-75
2023/02/01 06:19:31;;;;;;;7.05;4.13;;;;;;;8.57;100.00;101191.09;2108081;28;20046;-77
2023/02/01 06:20:55;;;;;;;13.23;2.70;;;;;;;8.55;100.00;101193.66;2102863;28;20044;-76
2023/02/01 06:22:17;;;;;;;6.95;3.95;;;;;;;8.54;100.00;101198.88;2108240;28;20051;-77
2023/02/01 06:23:38;;;;;;;6.78;5.05;;;;;;;8.50;100.00;101183.84;2097817;28;20048;-77
2023/02/01 06:25:00;;;;;;;5.93;4.03;;;;;;;8.50;100.00;101197.00;2099757;28;20480;-77
2023/02/01 06:26:24;;;;;;;4.68;2.70;;;;;;;8.52;100.00;101196.22;2102437;28;20048;-76
2023/02/01 06:27:46;;;;;;;6.63;2.55;;;;;;;8.57;100.00;101199.00;2099936;28;20036;-76
2023/02/01 06:29:11;;;;;;;8.02;4.90;;;;;;;8.63;100.00;101202.69;2101588;28;20048;-76
2023/02/01 06:30:34;;;;;;;8.75;3.88;;;;;;;8.67;100.00;101209.81;2101143;28;20485;-76
2023/02/01 06:31:56;;;;;;;6.82;3.45;;;;;;;8.68;100.00;101210.72;2096652;28;20778;-76
2023/02/01 06:33:19;;;;;;;5.35;2.63;;;;;;;8.71;100.00;101211.72;2110681;28;20596;-76
2023/02/01 06:34:41;;;;;;;5.88;2.60;;;;;;;8.74;100.00;101217.06;2108145;28;20054;-77
2023/02/01 06:36:04;;;;;;;11.77;5.25;;;;;;;8.78;100.00;101229.50;2102957;28;20047;-76
2023/02/01 06:37:29;;;;;;;11.70;7.80;;;;;;;8.82;100.00;101216.41;2103851;28;20466;-76
2023/02/01 06:38:51;;;;;;;7.43;3.30;;;;;;;8.84;100.00;101225.25;2101247;28;20109;-77
2023/02/01 06:40:13;;;;;;;11.10;5.15;;;;;;;8.90;100.00;101214.91;2106587;28;20051;-77
2023/02/01 06:41:37;;;;;;;4.03;2.42;;;;;;;8.97;100.00;101224.75;2103136;28;20123;-76
2023/02/01 06:42:59;;;;;;;5.45;3.63;;;;;;;8.97;100.00;101225.66;2105103;28;20059;-76
2023/02/01 06:44:21;;;;;;;8.98;6.65;;;;;;;8.98;100.00;101223.91;2092992;28;20273;-75
2023/02/01 06:45:43;;;;;;;8.40;4.10;;;;;;;8.98;100.00;101226.56;2097278;28;20396;-76
2023/02/01 06:47:06;;;;;;;7.90;3.00;;;;;;;9.00;100.00;101236.25;2099791;28;20052;-75
2023/02/01 06:48:29;;;;;;;10.05;5.18;;;;;;;9.01;100.00;101224.00;2094700;28;20047;-76
2023/02/01 06:49:51;;;;;;;8.93;6.97;;;;;;;9.01;100.00;101234.53;2100410;28;20043;-75
2023/02/01 06:51:22;;;;;;;6.35;3.97;;;;;;;9.04;100.00;101242.53;2098523;28;20080;-75
2023/02/01 06:52:44;;;;;;;10.50;8.07;;;;;;;9.05;100.00;101234.69;2100587;28;20055;-76
2023/02/01 06:54:06;;;;;;;8.65;5.97;;;;;;;9.05;100.00;101252.22;2096620;28;20425;-74
2023/02/01 06:55:29;;;;;;;5.47;2.80;;;;;;;9.07;100.00;101245.25;2103434;28;20043;-76
2023/02/01 06:56:52;;;;;;;8.55;5.78;;;;;;;9.19;100.00;101251.75;2097626;28;20463;-76